Time;durP1;ratioP1;P1;durP2;ratioP2;P2;SDS_P1;SDS_P2;PMS_P1;PMS_P2;Temp;Humidity;BMP_temperature;BMP_pressure;BME280_temperature;BME280_humidity;BME280_pressure;Samples;Min_cycle;Max_cycle;Signal;HPM_P1;HPM_P2
2023/01/08 00:02:09;;;;;;;5.97;3.00;;;;;;;16.08;100.00;100120.31;5121411;28;20058;-49
2023/01/08 00:04:34;;;;;;;5.55;3.00;;;;;;;16.15;100.00;100129.06;5120275;28;20268;-52
2023/01/08 00:07:00;;;;;;;6.22;3.15;;;;;;;16.28;100.00;100124.34;5122539;28;20156;-53
2023/01/08 00:09:27;;;;;;;6.97;3.05;;;;;;;15.79;100.00;100136.63;5121860;28;20038;-53
2023/01/08 00:11:52;;;;;;;8.55;3.65;;;;;;;16.26;100.00;100119.22;5118880;28;20100;-54
2023/01/08 00:14:18;;;;;;;7.57;2.78;;;;;;;15.91;100.00;100121.19;5120127;28;20035;-52
2023/01/08 00:16:43;;;;;;;6.90;3.42;;;;;;;16.00;100.00;100118.06;5121847;28;20048;-51
2023/01/08 00:19:11;;;;;;;6.47;3.20;;;;;;;15.88;100.00;100129.75;5115464;28;20032;-54
2023/01/08 00:21:37;;;;;;;4.73;2.80;;;;;;;16.09;100.00;100121.94;5121397;28;20277;-54
2023/01/08 00:24:03;;;;;;;9.60;3.22;;;;;;;15.91;100.00;100120.38;5119149;28;20253;-52
2023/01/08 00:26:29;;;;;;;7.75;3.30;;;;;;;15.88;100.00;100128.94;5123768;28;20028;-51
2023/01/08 00:28:55;;;;;;;8.43;3.33;;;;;;;15.95;100.00;100109.91;5120753;28;20040;-52
2023/01/08 00:31:20;;;;;;;10.10;3.33;;;;;;;16.26;100.00;100110.28;5123451;28;20264;-53
2023/01/08 00:33:46;;;;;;;8.50;3.30;;;;;;;16.02;100.00;100113.25;5122193;28;20047;-53
2023/01/08 00:36:14;;;;;;;9.67;3.83;;;;;;;15.90;100.00;100122.22;5119284;28;20044;-54
2023/01/08 00:38:40;;;;;;;10.13;3.43;;;;;;;16.07;100.00;100124.09;5119152;28;20032;-52
2023/01/08 00:41:06;;;;;;;13.85;5.32;;;;;;;16.00;100.00;100108.06;5123259;28;20284;-50
2023/01/08 00:43:33;;;;;;;18.63;7.32;;;;;;;16.07;100.00;100093.63;5115361;28;20091;-50
2023/01/08 00:45:58;;;;;;;12.70;7.40;;;;;;;15.81;100.00;100104.84;5116855;28;20276;-50
2023/01/08 00:48:24;;;;;;;14.68;6.75;;;;;;;15.86;100.00;100101.41;5113187;28;20987;-54
2023/01/08 00:50:51;;;;;;;16.63;6.60;;;;;;;15.98;100.00;100096.72;5106479;28;20039;-51
2023/01/08 00:53:17;;;;;;;17.00;7.63;;;;;;;16.31;100.00;100086.91;5118673;28;20069;-50
2023/01/08 00:55:43;;;;;;;;;;;;;;;16.05;100.00;100083.91;5119717;28;20257;-54
2023/01/08 00:58:10;;;;;;;10.87;4.50;;;;;;;16.43;100.00;100078.66;5118573;28;19916;-53
2023/01/08 01:00:36;;;;;;;8.90;3.93;;;;;;;16.32;100.00;100075.03;5120314;28;20371;-54
2023/01/08 01:03:01;;;;;;;6.33;3.30;;;;;;;16.02;100.00;100078.19;5113369;28;20284;-52
2023/01/08 01:05:26;;;;;;;11.07;3.87;;;;;;;16.25;100.00;100066.31;5117308;28;20032;-49
2023/01/08 01:07:52;;;;;;;8.77;3.57;;;;;;;16.22;100.00;100071.41;5105778;28;20043;-50
2023/01/08 01:10:17;;;;;;;6.67;3.43;;;;;;;16.15;100.00;100077.81;5119758;28;20028;-50
2023/01/08 01:12:43;;;;;;;10.35;3.38;;;;;;;16.41;100.00;100070.00;5113121;28;20054;-54
2023/01/08 01:15:15;;;;;;;6.70;3.30;;;;;;;16.18;100.00;100071.91;5114861;28;20032;-52
2023/01/08 01:17:41;;;;;;;9.00;3.80;;;;;;;16.63;100.00;100078.06;5117174;28;20074;-53
2023/01/08 01:20:09;;;;;;;7.17;3.47;;;;;;;16.86;100.00;100061.81;5117884;28;20283;-54
2023/01/08 01:22:35;;;;;;;5.47;3.40;;;;;;;16.26;100.00;100050.94;5115230;28;20325;-50
2023/01/08 01:25:01;;;;;;;9.52;3.80;;;;;;;16.51;100.00;100057.69;5119602;28;20267;-48
2023/01/08 01:27:27;;;;;;;9.90;3.22;;;;;;;17.09;100.00;100051.75;5112682;28;20050;-49
2023/01/08 01:29:52;;;;;;;9.47;3.13;;;;;;;16.77;100.00;100046.06;5114694;28;20036;-49
2023/01/08 01:32:18;;;;;;;8.02;3.17;;;;;;;16.53;100.00;100044.75;5117472;28;20043;-49
2023/01/08 01:34:44;;;;;;;8.88;4.72;;;;;;;17.15;100.00;100050.72;5113729;28;20089;-50
2023/01/08 01:37:14;;;;;;;12.52;3.95;;;;;;;17.27;100.00;100067.53;5107068;28;20032;-51
2023/01/08 01:39:42;;;;;;;25.97;5.37;;;;;;;16.57;100.00;100060.19;5112085;28;20070;-55
2023/01/08 01:42:38;;;;;;;19.50;4.17;;;;;;;16.16;100.00;100076.75;5117433;28;20343;-55
2023/01/08 01:44:57;;;;;;;7.77;3.03;;;;;;;15.99;100.00;100065.19;5114242;28;20325;-55
2023/01/08 01:47:38;;;;;;;27.53;4.03;;;;;;;16.17;100.00;100043.31;5111609;28;20276;-56
2023/01/08 01:50:12;;;;;;;20.10;4.07;;;;;;;16.47;100.00;100052.78;5113345;28;20087;-54
2023/01/08 01:53:00;;;;;;;22.50;3.40;;;;;;;16.53;100.00;100074.44;5112216;28;20285;-55
2023/01/08 01:55:26;;;;;;;7.05;3.35;;;;;;;16.09;100.00;100081.50;5112830;28;20306;-60
2023/01/08 01:58:09;;;;;;;6.82;4.07;;;;;;;16.42;100.00;100060.00;5118848;28;20510;-57
2023/01/08 02:00:35;;;;;;;11.93;4.73;;;;;;;16.20;100.00;100048.19;5117900;28;20089;-58
2023/01/08 02:03:01;;;;;;;11.27;3.88;;;;;;;15.94;100.00;100074.03;5116917;28;20276;-57
2023/01/08 02:05:40;;;;;;;13.60;4.70;;;;;;;16.47;100.00;100073.56;5096135;28;20055;-58
2023/01/08 02:08:17;;;;;;;9.07;5.23;;;;;;;16.81;100.00;100067.13;5118705;28;20280;-58
2023/01/08 02:10:56;;;;;;;8.33;5.03;;;;;;;16.77;100.00;100073.06;5116318;28;20264;-56
2023/01/08 02:13:28;;;;;;;10.13;4.53;;;;;;;16.32;100.00;100060.72;5112711;28;20279;-58
2023/01/08 02:16:03;;;;;;;12.43;5.50;;;;;;;16.34;100.00;100069.38;5114493;28;20318;-55
2023/01/08 02:18:44;;;;;;;33.30;8.57;;;;;;;16.68;100.00;100058.41;5112110;28;20288;-56
2023/01/08 02:21:13;;;;;;;20.83;6.60;;;;;;;15.98;100.00;100050.88;5112818;28;20303;-56
2023/01/08 02:23:51;;;;;;;10.00;4.03;;;;;;;16.59;100.00;100052.66;5118224;28;20260;-58
2023/01/08 02:26:29;;;;;;;11.17;3.67;;;;;;;15.84;100.00;100069.28;5113812;28;20393;-54
2023/01/08 02:29:06;;;;;;;11.93;3.80;;;;;;;15.96;100.00;100069.19;5119877;28;20288;-57
2023/01/08 02:31:32;;;;;;;7.40;3.33;;;;;;;16.01;100.00;100054.97;5116407;28;20272;-59
2023/01/08 02:33:58;;;;;;;;;;;;;;;15.77;100.00;100044.41;5112374;28;20040;-55
2023/01/08 02:36:27;;;;;;;5.13;3.00;;;;;;;16.01;100.00;100030.69;5118262;28;19912;-55
2023/01/08 02:39:07;;;;;;;12.07;4.23;;;;;;;15.73;100.00;100033.28;5117276;28;20093;-51
2023/01/08 02:41:53;;;;;;;10.63;4.27;;;;;;;16.01;100.00;100028.81;5115338;28;20295;-50
2023/01/08 02:44:32;;;;;;;10.53;4.43;;;;;;;15.81;100.00;100034.75;5118845;28;20323;-56
2023/01/08 02:47:00;;;;;;;13.53;4.03;;;;;;;16.29;100.00;100012.66;5116568;28;20307;-54
2023/01/08 02:49:31;;;;;;;15.73;6.27;;;;;;;15.77;100.00;100033.63;5124178;28;20300;-55
2023/01/08 02:52:01;;;;;;;11.17;5.47;;;;;;;16.34;100.00;100020.81;5122967;28;20275;-53
2023/01/08 02:54:32;;;;;;;10.73;4.97;;;;;;;16.20;100.00;100021.22;5121573;28;20265;-52
2023/01/08 02:57:04;;;;;;;20.47;6.13;;;;;;;15.71;100.00;100031.94;5118893;28;20268;-53
2023/01/08 02:59:32;;;;;;;15.17;6.13;;;;;;;16.53;100.00;100023.97;5118494;28;20286;-56
2023/01/08 03:01:59;;;;;;;18.70;6.30;;;;;;;16.55;100.00;100016.44;5122932;28;20295;-56
2023/01/08 03:04:26;;;;;;;16.40;6.70;;;;;;;16.50;100.00;100016.41;5120815;28;20274;-56
2023/01/08 03:06:52;;;;;;;17.20;5.27;;;;;;;16.64;100.00;100019.50;5118710;28;20267;-56
2023/01/08 03:09:18;;;;;;;12.77;3.97;;;;;;;16.09;100.00;100026.75;5101001;28;20264;-54
2023/01/08 03:11:56;;;;;;;15.75;4.15;;;;;;;16.19;100.00;100019.59;5120170;28;20024;-54
2023/01/08 03:14:29;;;;;;;9.47;4.60;;;;;;;15.84;100.00;100020.75;5123379;28;20095;-53
2023/01/08 03:16:55;;;;;;;13.30;4.30;;;;;;;15.87;100.00;100017.56;5123214;28;20256;-53
2023/01/08 03:19:25;;;;;;;9.20;2.50;;;;;;;15.11;100.00;100018.97;5122054;28;20279;-55
2023/01/08 03:21:51;;;;;;;4.53;2.03;;;;;;;14.99;100.00;100023.59;5118521;28;20055;-54
2023/01/08 03:24:22;;;;;;;10.80;1.98;;;;;;;14.93;100.00;100025.41;5120914;28;20275;-53
2023/01/08 03:26:50;;;;;;;7.20;1.57;;;;;;;14.60;100.00;100053.88;5121863;28;20043;-52
2023/01/08 03:29:19;;;;;;;9.23;1.53;;;;;;;14.63;100.00;100037.25;5123241;28;20295;-54
2023/01/08 03:31:47;;;;;;;6.83;1.80;;;;;;;14.59;100.00;100033.41;5120456;28;20261;-55
2023/01/08 03:34:15;;;;;;;9.93;2.33;;;;;;;14.42;100.00;100036.06;5123446;28;20272;-50
2023/01/08 03:36:45;;;;;;;6.23;2.10;;;;;;;14.46;100.00;100038.03;5126454;28;20268;-54
2023/01/08 03:39:18;;;;;;;10.10;1.87;;;;;;;14.62;100.00;100030.25;5122264;28;20276;-53
2023/01/08 03:41:46;;;;;;;8.03;1.80;;;;;;;14.70;100.00;100027.13;5122347;28;20281;-50
2023/01/08 03:44:12;;;;;;;4.63;1.50;;;;;;;14.49;100.00;100021.41;5124984;28;20284;-56
2023/01/08 03:46:43;;;;;;;9.40;1.50;;;;;;;14.88;100.00;100014.56;5118599;28;20331;-52
2023/01/08 03:49:10;;;;;;;4.07;1.30;;;;;;;15.12;100.00;100014.38;5120423;28;20051;-52
2023/01/08 03:51:43;;;;;;;;;;;;;;;15.12;100.00;100017.91;5124437;28;20265;-53
2023/01/08 03:54:14;;;;;;;6.00;1.40;;;;;;;14.88;100.00;99999.22;5125909;28;19915;-53
2023/01/08 03:56:40;;;;;;;6.77;0.90;;;;;;;14.57;100.00;100009.44;5122064;28;20253;-52
2023/01/08 03:59:05;;;;;;;4.73;1.10;;;;;;;14.88;100.00;100022.63;5123182;28;20262;-50
2023/01/08 04:01:32;;;;;;;3.70;1.00;;;;;;;14.74;100.00;100022.13;5121429;28;20053;-53
2023/01/08 04:03:58;;;;;;;14.27;2.17;;;;;;;14.98;100.00;100020.09;5121988;28;20276;-50
2023/01/08 04:06:23;;;;;;;5.57;1.00;;;;;;;14.67;100.00;100018.75;5123917;28;20511;-50
2023/01/08 04:08:49;;;;;;;4.80;1.37;;;;;;;15.08;100.00;100005.16;5103114;28;20032;-52
2023/01/08 04:11:15;;;;;;;5.22;1.20;;;;;;;15.01;100.00;99998.09;5120651;28;20031;-51
2023/01/08 04:13:41;;;;;;;4.03;1.00;;;;;;;15.30;100.00;100000.66;5122992;28;20051;-55
2023/01/08 04:16:07;;;;;;;8.23;1.13;;;;;;;15.31;100.00;100009.53;5117924;28;20280;-54
2023/01/08 04:18:33;;;;;;;5.85;1.45;;;;;;;15.22;100.00;100017.22;5122854;28;20028;-55
2023/01/08 04:20:59;;;;;;;9.40;1.38;;;;;;;15.14;100.00;100014.94;5117942;28;20044;-51
2023/01/08 04:23:25;;;;;;;6.10;1.77;;;;;;;15.04;100.00;100004.84;5122555;28;20044;-53
2023/01/08 04:25:51;;;;;;;7.57;1.83;;;;;;;15.46;100.00;99993.59;5123250;28;20272;-53
2023/01/08 04:28:16;;;;;;;8.50;1.80;;;;;;;15.19;100.00;99993.47;5122867;28;20111;-55
2023/01/08 04:30:42;;;;;;;6.03;2.20;;;;;;;15.31;100.00;99982.59;5105385;28;20028;-51
2023/01/08 04:33:09;;;;;;;5.53;1.25;;;;;;;15.25;100.00;99981.75;5100951;28;20070;-51
2023/01/08 04:35:34;;;;;;;7.83;1.30;;;;;;;15.17;100.00;99980.28;5120043;28;20052;-53
2023/01/08 04:38:00;;;;;;;4.40;0.93;;;;;;;15.30;100.00;99986.34;5122905;28;20307;-51
2023/01/08 04:40:25;;;;;;;4.50;1.20;;;;;;;15.18;100.00;99992.69;5124960;28;20036;-53
2023/01/08 04:42:51;;;;;;;4.23;1.60;;;;;;;15.12;100.00;99979.38;5122578;28;20103;-54
2023/01/08 04:45:17;;;;;;;9.30;1.50;;;;;;;15.15;100.00;99968.94;5120775;28;20298;-51
2023/01/08 04:47:43;;;;;;;6.53;1.33;;;;;;;15.16;100.00;99983.19;5121473;28;20042;-54
2023/01/08 04:50:09;;;;;;;7.47;1.77;;;;;;;16.40;100.00;99982.03;5121743;28;20036;-56
2023/01/08 04:52:35;;;;;;;10.97;1.93;;;;;;;15.05;100.00;99996.53;5125630;28;20038;-52
2023/01/08 04:55:01;;;;;;;7.10;1.70;;;;;;;14.65;100.00;99992.06;5125817;28;20028;-52
2023/01/08 04:57:26;;;;;;;6.43;2.13;;;;;;;14.55;100.00;99991.91;5127738;28;20061;-54
2023/01/08 04:59:52;;;;;;;3.80;1.50;;;;;;;14.31;100.00;99992.03;5119068;28;20348;-54
2023/01/08 05:02:17;;;;;;;5.63;1.80;;;;;;;14.47;100.00;99990.44;5119391;28;20032;-53
2023/01/08 05:04:43;;;;;;;4.82;1.45;;;;;;;14.75;100.00;99986.88;5124522;28;20053;-54
2023/01/08 05:07:08;;;;;;;5.68;2.35;;;;;;;14.75;100.00;99965.34;5121521;28;20071;-51
2023/01/08 05:09:34;;;;;;;7.93;2.10;;;;;;;15.26;100.00;99972.59;5118658;28;20039;-51
2023/01/08 05:11:59;;;;;;;6.73;1.53;;;;;;;14.97;100.00;99967.31;5126596;28;20036;-52
2023/01/08 05:14:25;;;;;;;9.23;1.50;;;;;;;14.88;100.00;99968.78;5124107;28;20118;-51
2023/01/08 05:16:50;;;;;;;8.35;1.52;;;;;;;14.65;100.00;99981.31;5114496;28;20031;-54
2023/01/08 05:19:16;;;;;;;14.30;2.90;;;;;;;14.44;100.00;99980.97;5116211;28;20039;-50
2023/01/08 05:21:41;;;;;;;12.63;1.80;;;;;;;15.03;100.00;99987.88;5119061;28;20326;-53
2023/01/08 05:24:08;;;;;;;7.20;1.63;;;;;;;14.57;100.00;99981.72;5115378;28;20038;-55
2023/01/08 05:26:34;;;;;;;4.47;1.43;;;;;;;14.84;100.00;99973.03;5114503;28;20304;-54
2023/01/08 05:28:59;;;;;;;8.13;2.30;;;;;;;14.80;100.00;99979.97;5118904;28;20278;-54
2023/01/08 05:31:25;;;;;;;12.50;2.15;;;;;;;14.67;100.00;99968.44;5118946;28;20055;-55
2023/01/08 05:33:50;;;;;;;6.07;1.70;;;;;;;14.47;100.00;99964.34;5118215;28;20044;-55
2023/01/08 05:36:16;;;;;;;11.63;1.73;;;;;;;14.84;100.00;99959.56;5119346;28;20276;-49
2023/01/08 05:38:42;;;;;;;4.13;1.30;;;;;;;14.34;100.00;99964.66;5117848;28;20042;-55
2023/01/08 05:41:08;;;;;;;9.00;1.97;;;;;;;14.54;100.00;99960.69;5121102;28;20095;-54
2023/01/08 05:43:34;;;;;;;9.90;2.07;;;;;;;14.36;100.00;99957.16;5121837;28;20095;-53
2023/01/08 05:46:01;;;;;;;9.45;2.17;;;;;;;14.37;100.00;99958.78;5122620;28;20274;-50
2023/01/08 05:48:27;;;;;;;5.90;1.23;;;;;;;14.59;100.00;99960.78;5122367;28;20036;-52
2023/01/08 05:50:54;;;;;;;5.33;1.20;;;;;;;14.63;100.00;99975.38;5116269;28;20264;-53
2023/01/08 05:53:20;;;;;;;8.27;1.50;;;;;;;14.03;100.00;99961.38;5121525;28;20256;-53
2023/01/08 05:55:45;;;;;;;6.78;1.83;;;;;;;14.36;100.00;99962.53;5120768;28;20091;-52
2023/01/08 05:58:11;;;;;;;3.77;1.70;;;;;;;14.16;100.00;99968.34;5116356;28;20048;-53
2023/01/08 06:00:37;;;;;;;7.50;1.43;;;;;;;13.89;100.00;99966.22;5121152;28;20048;-53
2023/01/08 06:03:03;;;;;;;3.28;1.48;;;;;;;14.16;100.00;99963.81;5120147;28;20061;-49
2023/01/08 06:05:30;;;;;;;4.82;1.70;;;;;;;14.07;100.00;99965.25;5118634;28;20084;-52
2023/01/08 06:07:57;;;;;;;6.13;1.80;;;;;;;13.78;100.00;99962.53;5098594;28;20036;-48
2023/01/08 06:10:22;;;;;;;6.77;1.23;;;;;;;14.03;100.00;99958.69;5117190;28;20290;-53
2023/01/08 06:12:48;;;;;;;4.50;1.80;;;;;;;13.88;100.00;99962.75;5121614;28;20260;-51
2023/01/08 06:15:13;;;;;;;3.33;1.23;;;;;;;13.86;100.00;99964.84;5124327;28;20285;-55
2023/01/08 06:17:39;;;;;;;8.60;1.90;;;;;;;13.83;100.00;99959.94;5119068;28;20035;-51
2023/01/08 06:20:05;;;;;;;7.05;1.38;;;;;;;13.66;100.00;99964.44;5119234;28;20095;-50
2023/01/08 06:22:32;;;;;;;3.67;1.15;;;;;;;13.63;100.00;99971.09;5121245;28;20036;-52
2023/01/08 06:24:57;;;;;;;3.60;1.80;;;;;;;13.57;100.00;99969.38;5122570;28;20077;-51
2023/01/08 06:27:22;;;;;;;3.92;1.33;;;;;;;13.65;100.00;99974.34;5116177;28;20028;-52
2023/01/08 06:29:48;;;;;;;9.73;3.90;;;;;;;13.24;100.00;99979.66;5120516;28;20032;-52
2023/01/08 06:32:13;;;;;;;10.93;4.40;;;;;;;13.45;100.00;99972.06;5125022;28;20284;-54
2023/01/08 06:34:39;;;;;;;14.07;5.57;;;;;;;13.45;100.00;99980.13;5118150;28;20052;-54
2023/01/08 06:37:04;;;;;;;9.23;4.70;;;;;;;13.17;100.00;99987.00;5100632;28;20039;-55
2023/01/08 06:39:29;;;;;;;10.07;3.80;;;;;;;13.22;100.00;99978.22;5120698;28;20028;-55
2023/01/08 06:41:55;;;;;;;11.37;3.07;;;;;;;13.15;100.00;99979.19;5123207;28;20057;-55
2023/01/08 06:44:20;;;;;;;7.23;2.00;;;;;;;13.43;100.00;99988.41;5122411;28;20275;-52
2023/01/08 06:46:46;;;;;;;4.67;1.47;;;;;;;13.56;100.00;99978.47;5119372;28;20042;-50
2023/01/08 06:49:12;;;;;;;6.87;1.60;;;;;;;13.23;100.00;99983.38;5120215;28;20336;-50
2023/01/08 06:51:38;;;;;;;3.20;1.60;;;;;;;13.17;100.00;99978.94;5120418;28;20023;-49
2023/01/08 06:54:03;;;;;;;6.53;1.50;;;;;;;13.30;100.00;99975.22;5122420;28;20071;-50
2023/01/08 06:56:28;;;;;;;5.77;1.37;;;;;;;13.17;100.00;99982.44;5122345;28;20043;-49
2023/01/08 06:58:54;;;;;;;9.53;1.60;;;;;;;13.03;100.00;99981.03;5121154;28;20032;-50
2023/01/08 07:01:21;;;;;;;5.72;1.40;;;;;;;13.13;100.00;100001.91;5123217;28;20367;-53
2023/01/08 07:03:47;;;;;;;4.07;1.17;;;;;;;13.02;100.00;99993.66;5118444;28;20040;-52
2023/01/08 07:06:19;;;;;;;5.82;1.25;;;;;;;12.65;100.00;100009.91;5120837;28;20036;-48
2023/01/08 07:08:45;;;;;;;5.68;1.65;;;;;;;12.94;100.00;100007.41;5118247;28;20063;-51
2023/01/08 07:11:11;;;;;;;4.93;1.10;;;;;;;12.94;100.00;99991.31;5123423;28;20050;-51
2023/01/08 07:13:37;;;;;;;9.27;1.35;;;;;;;12.72;100.00;99999.91;5116696;28;20032;-48
2023/01/08 07:16:07;;;;;;;10.67;2.10;;;;;;;12.95;100.00;99997.47;5122124;28;20110;-54
2023/01/08 07:18:33;;;;;;;9.00;1.65;;;;;;;13.00;100.00;99990.38;5117865;28;20056;-53
2023/01/08 07:20:59;;;;;;;10.18;1.77;;;;;;;12.56;100.00;99979.13;5112976;28;20040;-55
2023/01/08 07:23:24;;;;;;;7.97;1.30;;;;;;;12.81;100.00;99986.16;5120993;28;20061;-52
2023/01/08 07:25:50;;;;;;;9.93;1.40;;;;;;;12.93;100.00;99981.63;5119256;28;20043;-51
2023/01/08 07:28:15;;;;;;;6.87;1.40;;;;;;;12.79;100.00;99977.53;5121267;28;20261;-54
2023/01/08 07:30:42;;;;;;;11.40;2.00;;;;;;;12.83;100.00;99976.00;5120636;28;20047;-53
2023/01/08 07:33:07;;;;;;;5.45;1.70;;;;;;;12.58;100.00;99980.53;5119102;28;20024;-51
2023/01/08 07:35:34;;;;;;;8.97;1.97;;;;;;;12.95;100.00;99979.53;5125755;28;20111;-48
2023/01/08 07:37:59;;;;;;;7.68;2.40;;;;;;;12.81;100.00;99976.25;5118587;28;20265;-50
2023/01/08 07:40:25;;;;;;;10.23;1.77;;;;;;;12.81;100.00;99967.38;5124259;28;20067;-49
2023/01/08 07:43:01;;;;;;;9.88;2.00;;;;;;;12.84;100.00;99964.22;5119228;28;20083;-52
2023/01/08 07:45:27;;;;;;;11.88;3.03;;;;;;;12.93;100.00;99968.22;5122079;28;20118;-57
2023/01/08 07:47:56;;;;;;;6.53;2.50;;;;;;;12.99;100.00;99967.28;5121350;28;20047;-49
2023/01/08 07:50:22;;;;;;;10.93;2.00;;;;;;;12.88;100.00;99962.69;5118219;28;20088;-52
2023/01/08 07:52:48;;;;;;;8.18;1.40;;;;;;;12.86;100.00;99971.00;5126814;28;20028;-52
2023/01/08 07:55:13;;;;;;;10.77;2.63;;;;;;;12.90;100.00;99966.81;5119708;28;20108;-49
2023/01/08 07:57:38;;;;;;;5.03;1.70;;;;;;;12.39;100.00;99984.31;5117862;28;20036;-54
2023/01/08 08:00:05;;;;;;;13.00;2.77;;;;;;;12.07;100.00;99979.16;5119423;28;20040;-51
2023/01/08 08:02:32;;;;;;;8.70;2.10;;;;;;;12.26;100.00;99982.66;5115119;28;20040;-53
2023/01/08 08:04:58;;;;;;;9.20;1.63;;;;;;;12.39;100.00;99978.94;5118828;28;20047;-50
2023/01/08 08:07:24;;;;;;;9.87;3.87;;;;;;;12.36;100.00;99969.50;5116781;28;20027;-56
2023/01/08 08:09:49;;;;;;;9.33;1.60;;;;;;;12.33;100.00;99991.41;5121791;28;20260;-52
2023/01/08 08:12:15;;;;;;;8.43;2.73;;;;;;;12.25;100.00;99979.13;5119483;28;20058;-52
2023/01/08 08:14:40;;;;;;;12.63;2.03;;;;;;;12.60;100.00;99965.03;5117075;28;20268;-53
2023/01/08 08:17:05;;;;;;;11.13;1.77;;;;;;;12.44;100.00;99966.47;5119009;28;20031;-52
2023/01/08 08:19:31;;;;;;;8.77;1.75;;;;;;;12.93;100.00;99970.06;5120441;28;20050;-51
2023/01/08 08:21:57;;;;;;;10.77;3.47;;;;;;;12.72;100.00;99962.34;5123580;28;20054;-51
2023/01/08 08:24:22;;;;;;;8.87;1.90;;;;;;;12.51;100.00;99963.69;5117604;28;20040;-51
2023/01/08 08:26:48;;;;;;;9.77;3.10;;;;;;;12.43;100.00;99958.69;5119086;28;20284;-53
2023/01/08 08:29:14;;;;;;;6.05;2.03;;;;;;;12.47;100.00;99962.53;5121412;28;20065;-49
2023/01/08 08:31:39;;;;;;;5.70;1.90;;;;;;;12.60;100.00;99959.66;5122176;28;20028;-52
2023/01/08 08:34:06;;;;;;;8.23;2.17;;;;;;;12.50;100.00;99947.84;5097058;28;20337;-54
2023/01/08 08:36:32;;;;;;;17.20;2.40;;;;;;;12.26;100.00;99953.16;5094252;28;20066;-54
2023/01/08 08:39:00;;;;;;;13.80;2.03;;;;;;;12.67;100.00;99948.78;5091610;28;20101;-54
2023/01/08 08:41:26;;;;;;;12.18;1.88;;;;;;;12.82;100.00;99950.22;5092411;28;20028;-51
2023/01/08 08:43:51;;;;;;;11.67;2.13;;;;;;;12.42;100.00;99946.31;5093503;28;20039;-51
2023/01/08 08:46:17;;;;;;;7.50;2.23;;;;;;;12.89;100.00;99946.38;5093503;28;20100;-55
2023/01/08 08:48:44;;;;;;;7.90;2.08;;;;;;;12.65;100.00;99947.41;5085688;28;20269;-50
2023/01/08 08:51:10;;;;;;;7.18;2.15;;;;;;;12.54;100.00;99941.78;5089268;28;20040;-54
2023/01/08 08:53:35;;;;;;;19.20;2.65;;;;;;;12.77;100.00;99937.50;5083026;28;20028;-50
2023/01/08 08:56:01;;;;;;;8.47;2.60;;;;;;;13.05;100.00;99928.75;5090888;28;20046;-50
2023/01/08 08:58:26;;;;;;;11.67;2.00;;;;;;;12.57;100.00;99932.47;5088478;28;20269;-53
2023/01/08 09:00:52;;;;;;;14.67;1.97;;;;;;;12.69;100.00;99936.00;5089372;28;20029;-49
2023/01/08 09:03:17;;;;;;;10.00;2.53;;;;;;;12.84;100.00;99935.53;5086257;28;20048;-50
2023/01/08 09:05:43;;;;;;;11.80;2.10;;;;;;;12.83;100.00;99935.75;5089990;28;20063;-54
2023/01/08 09:08:09;;;;;;;6.88;1.40;;;;;;;12.79;100.00;99943.44;5084681;28;20081;-53
2023/01/08 09:10:41;;;;;;;14.98;1.88;;;;;;;12.65;100.00;99945.53;5090922;28;20032;-50
2023/01/08 09:13:06;;;;;;;12.32;1.85;;;;;;;12.81;100.00;99936.00;5085686;28;20096;-52
2023/01/08 09:15:32;;;;;;;14.23;1.85;;;;;;;12.95;100.00;99943.81;5088376;28;20032;-52
2023/01/08 09:17:58;;;;;;;16.23;2.30;;;;;;;12.71;100.00;99938.44;5086150;28;20047;-53
2023/01/08 09:20:25;;;;;;;10.90;2.10;;;;;;;12.86;100.00;99940.66;5088293;28;20040;-49
2023/01/08 09:22:51;;;;;;;12.18;1.77;;;;;;;13.05;100.00;99933.31;5088045;28;20277;-49
2023/01/08 09:25:16;;;;;;;9.07;2.25;;;;;;;12.89;100.00;99934.81;5086256;28;20032;-55
2023/01/08 09:27:42;;;;;;;12.73;2.03;;;;;;;13.01;100.00;99935.66;5088406;28;20047;-53
2023/01/08 09:30:08;;;;;;;14.03;3.13;;;;;;;13.19;100.00;99940.06;5089026;28;20044;-48
2023/01/08 09:32:34;;;;;;;9.40;2.42;;;;;;;13.24;100.00;99931.31;5088032;28;20033;-49
2023/01/08 09:34:59;;;;;;;11.07;1.77;;;;;;;13.53;100.00;99927.91;5098802;28;20078;-50
2023/01/08 09:37:25;;;;;;;11.47;2.50;;;;;;;14.18;100.00;99934.78;5110102;28;20299;-50
2023/01/08 09:39:50;;;;;;;9.67;2.03;;;;;;;14.92;100.00;99932.25;5112564;28;20049;-53
2023/01/08 09:42:21;;;;;;;10.23;2.83;;;;;;;15.78;100.00;99936.31;5113608;28;20313;-53
2023/01/08 09:44:49;;;;;;;8.43;2.00;;;;;;;16.09;100.00;99927.75;5108123;28;20114;-54
2023/01/08 09:47:29;;;;;;;12.23;2.10;;;;;;;16.27;100.00;99940.09;5112711;28;20279;-51
2023/01/08 09:50:00;;;;;;;10.70;2.20;;;;;;;16.52;100.00;99935.16;5113577;28;20264;-56
2023/01/08 09:52:25;;;;;;;9.43;1.87;;;;;;;17.40;100.00;99928.44;5120299;28;20264;-53
2023/01/08 09:54:51;;;;;;;7.43;1.73;;;;;;;17.82;100.00;99934.00;5119763;28;20358;-54
2023/01/08 09:57:19;;;;;;;9.93;2.67;;;;;;;18.24;100.00;99930.34;5118389;28;20187;-55
2023/01/08 09:59:47;;;;;;;12.20;2.03;;;;;;;17.92;100.00;99940.28;5113240;28;20093;-49
2023/01/08 10:02:17;;;;;;;10.20;2.20;;;;;;;18.38;100.00;99930.63;5110704;28;20285;-56
2023/01/08 10:04:43;;;;;;;9.10;2.00;;;;;;;18.33;100.00;99933.34;5113237;28;20331;-54
2023/01/08 10:07:20;;;;;;;;;;;;;;;18.75;98.91;99932.25;5120728;28;20290;-53
2023/01/08 10:09:50;;;;;;;7.60;2.07;;;;;;;18.45;100.00;99925.78;5116959;28;19916;-53
2023/01/08 10:12:24;;;;;;;11.27;2.33;;;;;;;18.51;99.79;99928.47;5116837;28;20051;-50
2023/01/08 10:14:50;;;;;;;10.83;2.43;;;;;;;19.03;97.20;99919.22;5116600;28;20047;-50
2023/01/08 10:17:26;;;;;;;8.37;2.20;;;;;;;18.54;98.20;99919.81;5117875;28;20095;-50
2023/01/08 10:19:52;;;;;;;9.83;1.80;;;;;;;18.70;98.53;99916.03;5117872;28;20032;-49
2023/01/08 10:22:21;;;;;;;11.10;2.28;;;;;;;18.69;99.75;99913.56;5122762;28;20035;-55
2023/01/08 10:24:47;;;;;;;11.70;2.03;;;;;;;18.48;98.35;99909.00;5120101;28;20028;-53
2023/01/08 10:27:15;;;;;;;6.82;2.88;;;;;;;19.01;95.12;99913.28;5118060;28;20043;-53
2023/01/08 10:29:41;;;;;;;9.53;1.77;;;;;;;18.79;96.89;99913.53;5121165;28;20118;-52
2023/01/08 10:32:14;;;;;;;9.55;2.05;;;;;;;19.32;94.06;99910.47;5127890;28;20027;-51
2023/01/08 10:34:46;;;;;;;9.17;2.23;;;;;;;18.98;95.54;99894.88;5118519;28;20047;-54
2023/01/08 10:37:22;;;;;;;10.13;2.10;;;;;;;19.40;91.33;99911.78;5121590;28;20049;-53
2023/01/08 10:39:49;;;;;;;7.05;2.05;;;;;;;18.86;95.70;99891.59;5115188;28;20035;-55
2023/01/08 10:42:18;;;;;;;9.33;1.93;;;;;;;19.43;91.31;99896.88;5116835;28;20053;-52
2023/01/08 10:44:55;;;;;;;8.17;1.80;;;;;;;18.61;96.22;99883.25;5113142;28;20091;-53
2023/01/08 10:47:23;;;;;;;12.70;2.30;;;;;;;19.37;92.33;99897.97;5114889;28;20035;-54
2023/01/08 10:49:49;;;;;;;9.60;2.33;;;;;;;19.63;89.90;99895.97;5121174;28;20035;-53
2023/01/08 10:52:28;;;;;;;11.60;1.98;;;;;;;18.97;92.34;99890.50;5121875;28;20016;-57
2023/01/08 10:54:54;;;;;;;7.67;1.80;;;;;;;19.74;90.10;99873.13;5117673;28;20107;-54
2023/01/08 10:57:26;;;;;;;8.45;2.20;;;;;;;19.67;89.13;99878.03;5119131;28;20035;-54
2023/01/08 10:59:53;;;;;;;10.83;2.43;;;;;;;20.23;86.76;99880.69;5117049;28;20043;-55
2023/01/08 11:02:33;;;;;;;11.73;2.20;;;;;;;20.63;82.93;99878.72;5121472;28;20044;-55
2023/01/08 11:04:59;;;;;;;7.40;2.27;;;;;;;20.11;84.12;99887.28;5120031;28;20109;-53
2023/01/08 11:07:25;;;;;;;5.75;2.33;;;;;;;20.25;85.42;99854.06;5126416;28;20038;-52
2023/01/08 11:09:52;;;;;;;6.50;1.63;;;;;;;21.25;80.98;99869.91;5119986;28;20032;-52
2023/01/08 11:12:24;;;;;;;7.23;1.70;;;;;;;20.97;81.56;99864.25;5118028;28;20038;-50
2023/01/08 11:14:50;;;;;;;6.77;1.90;;;;;;;21.02;81.24;99866.09;5121047;28;20028;-52
2023/01/08 11:17:15;;;;;;;4.97;1.33;;;;;;;21.10;79.73;99870.88;5121166;28;20028;-53
2023/01/08 11:19:40;;;;;;;9.02;1.98;;;;;;;20.67;79.70;99851.78;5116460;28;20043;-54
2023/01/08 11:22:23;;;;;;;4.67;1.67;;;;;;;22.03;76.84;99849.81;5122335;28;20043;-52
2023/01/08 11:24:51;;;;;;;4.53;1.30;;;;;;;20.58;78.33;99846.97;5120403;28;20035;-53